createdAt,value
2019-01-28T00:01:13.124Z,80.05
2019-01-28T00:03:42.833Z,78.20
2019-01-28T00:06:12.202Z,79.58
2019-01-28T00:08:42.353Z,78.30
2019-01-28T00:11:11.456Z,77.56
2019-01-28T00:13:40.750Z,77.32
2019-01-28T00:16:10.464Z,78.49
2019-01-28T00:18:39.493Z,77.79
2019-01-28T00:21:08.880Z,77.66
2019-01-28T00:23:37.965Z,78.19
2019-01-28T00:26:06.969Z,79.03
2019-01-28T00:28:36.510Z,78.14
2019-01-28T00:31:05.994Z,79.88
2019-01-28T00:33:35.066Z,78.43
2019-01-28T00:36:04.071Z,79.08
2019-01-28T00:38:33.450Z,79.65
2019-01-28T00:41:02.461Z,79.06
2019-01-28T00:43:32.135Z,78.95
2019-01-28T00:46:01.184Z,80.06
2019-01-28T00:48:30.567Z,80.74
2019-01-28T00:50:59.628Z,79.94
2019-01-28T00:53:28.675Z,79.97
2019-01-28T00:55:57.708Z,82.15
2019-01-28T00:58:26.741Z,80.84
2019-01-28T01:00:55.793Z,81.09
2019-01-28T01:03:26.435Z,82.99
2019-01-28T01:05:55.735Z,82.61
2019-01-28T01:08:26.373Z,82.61
2019-01-28T01:10:55.421Z,82.89
2019-01-28T01:13:24.433Z,82.88
2019-01-28T01:15:53.491Z,82.76
2019-01-28T01:18:22.543Z,83.08
2019-01-28T01:20:51.561Z,84.05
2019-01-28T01:23:20.632Z,83.75
2019-01-28T01:25:49.647Z,83.37
2019-01-28T01:28:18.651Z,84.00
2019-01-28T01:30:47.667Z,84.36
2019-01-28T01:33:16.719Z,84.19
2019-01-28T01:35:45.724Z,82.59
2019-01-28T01:38:15.115Z,83.72
2019-01-28T01:40:44.133Z,82.22
2019-01-28T01:43:13.161Z,82.97
2019-01-28T01:45:42.206Z,83.79
2019-01-28T01:48:11.515Z,83.06
2019-01-28T01:50:40.538Z,82.29
2019-01-28T01:53:09.868Z,82.24
2019-01-28T01:55:39.201Z,83.07
2019-01-28T01:58:08.233Z,82.95
2019-01-28T02:00:37.619Z,81.68
2019-01-28T02:03:07.035Z,82.84
2019-01-28T02:05:36.385Z,83.47
2019-01-28T02:08:05.611Z,82.25
2019-01-28T02:10:34.897Z,82.99
2019-01-28T02:13:04.269Z,81.46
2019-01-28T02:15:33.285Z,82.88
2019-01-28T02:18:02.359Z,82.04
2019-01-28T02:20:31.428Z,81.26
2019-01-28T02:23:00.431Z,82.04
2019-01-28T02:25:29.787Z,82.74
2019-01-28T02:27:58.801Z,82.34
2019-01-28T02:30:27.796Z,81.35
2019-01-28T02:32:57.168Z,81.42
2019-01-28T02:35:26.186Z,82.37
2019-01-28T02:37:55.605Z,83.17
2019-01-28T02:40:24.652Z,82.25
2019-01-28T02:42:53.663Z,82.92
2019-01-28T02:45:22.702Z,82.35
2019-01-28T02:47:51.725Z,82.64
2019-01-28T02:50:20.715Z,81.32
2019-01-28T02:52:49.715Z,81.59
2019-01-28T02:55:19.283Z,81.89
2019-01-28T02:57:48.410Z,81.48
2019-01-28T03:00:19.959Z,81.66
2019-01-28T03:02:48.985Z,81.60
2019-01-28T03:05:19.063Z,80.67
2019-01-28T03:07:48.256Z,81.61
2019-01-28T03:10:19.835Z,82.00
2019-01-28T03:12:49.080Z,79.98
2019-01-28T03:15:18.610Z,80.80
2019-01-28T03:17:47.779Z,81.32
2019-01-28T03:20:17.247Z,81.55
2019-01-28T03:22:46.877Z,80.75
2019-01-28T03:25:16.663Z,81.75
2019-01-28T03:27:46.077Z,82.36
2019-01-28T03:30:17.432Z,81.72
2019-01-28T03:32:46.769Z,81.19
2019-01-28T03:35:16.019Z,82.81
2019-01-28T03:37:45.056Z,82.77
2019-01-28T03:40:16.962Z,83.69
2019-01-28T03:42:46.606Z,83.40
2019-01-28T03:45:17.421Z,83.23
2019-01-28T03:47:46.477Z,82.18
2019-01-28T03:50:16.889Z,83.29
2019-01-28T03:52:46.881Z,83.97
2019-01-28T03:55:16.487Z,83.42
2019-01-28T03:57:45.601Z,83.16
2019-01-28T04:00:20.142Z,82.79
2019-01-28T04:02:49.169Z,83.52
2019-01-28T04:05:18.199Z,82.09
2019-01-28T04:07:47.233Z,82.14
2019-01-28T04:10:18.605Z,82.02
2019-01-28T04:12:48.025Z,82.69
2019-01-28T04:15:17.900Z,81.25
2019-01-28T04:17:46.956Z,82.02
2019-01-28T04:20:17.522Z,81.80
2019-01-28T04:22:46.566Z,82.91
2019-01-28T04:25:15.581Z,81.47
2019-01-28T04:27:45.304Z,81.82
2019-01-28T04:30:17.107Z,81.55
2019-01-28T04:32:46.440Z,80.79
2019-01-28T04:35:15.473Z,82.51
2019-01-28T04:37:44.848Z,82.16
2019-01-28T04:40:14.126Z,82.63
2019-01-28T04:42:43.596Z,82.64
2019-01-28T04:45:14.626Z,83.21
2019-01-28T04:47:43.787Z,82.52
2019-01-28T04:50:17.253Z,82.97
2019-01-28T04:52:46.291Z,82.11
2019-01-28T04:55:16.111Z,82.22
2019-01-28T04:57:45.152Z,83.12
2019-01-28T05:00:16.754Z,82.35
2019-01-28T05:02:45.854Z,82.36
2019-01-28T05:05:15.046Z,82.38
2019-01-28T05:07:44.162Z,81.99
2019-01-28T05:10:14.984Z,82.43
2019-01-28T05:12:44.377Z,82.56
2019-01-28T05:15:15.032Z,83.20
2019-01-28T05:17:44.123Z,83.35
2019-01-28T05:20:15.158Z,82.50
2019-01-28T05:22:44.587Z,82.30
2019-01-28T05:25:14.603Z,82.91
2019-01-28T05:27:43.622Z,82.76
2019-01-28T05:30:15.668Z,83.26
2019-01-28T05:32:44.988Z,83.31
2019-01-28T05:35:15.290Z,81.96
2019-01-28T05:37:44.305Z,83.51
2019-01-28T05:40:16.011Z,83.92
2019-01-28T05:42:45.135Z,83.46
2019-01-28T05:45:15.274Z,83.82
2019-01-28T05:47:44.302Z,83.43
2019-01-28T05:50:13.574Z,82.78
2019-01-28T05:52:42.638Z,83.42
2019-01-28T05:55:12.620Z,84.29
2019-01-28T05:57:41.746Z,83.70
2019-01-28T06:00:15.411Z,83.33
2019-01-28T06:02:44.434Z,84.42
2019-01-28T06:05:13.543Z,83.91
2019-01-28T06:07:42.645Z,84.68
2019-01-28T06:10:12.099Z,84.44
2019-01-28T06:12:41.116Z,84.70
2019-01-28T06:15:12.501Z,84.91
2019-01-28T06:17:41.853Z,84.13
2019-01-28T06:20:14.413Z,83.88
2019-01-28T06:22:43.920Z,84.12
2019-01-28T06:25:13.055Z,83.91
2019-01-28T06:27:42.092Z,84.06
2019-01-28T06:30:14.870Z,84.78
2019-01-28T06:32:43.935Z,84.50
2019-01-28T06:35:13.062Z,84.33
2019-01-28T06:37:42.511Z,84.34
2019-01-28T06:40:13.120Z,84.52
2019-01-28T06:42:42.142Z,84.24
2019-01-28T06:45:12.274Z,84.73
2019-01-28T06:47:46.875Z,84.73
2019-01-28T06:50:14.514Z,84.36
2019-01-28T06:52:43.837Z,84.45
2019-01-28T06:55:13.540Z,83.65
2019-01-28T06:57:42.619Z,84.84
2019-01-28T07:00:16.419Z,84.88
2019-01-28T07:02:45.404Z,84.68
2019-01-28T07:05:14.486Z,85.66
2019-01-28T07:07:43.506Z,85.39
2019-01-28T07:10:13.374Z,85.43
2019-01-28T07:12:42.366Z,86.27
2019-01-28T07:15:12.608Z,85.32
2019-01-28T07:17:41.621Z,85.51
2019-01-28T07:20:14.531Z,85.82
2019-01-28T07:22:43.806Z,86.63
2019-01-28T07:25:13.170Z,85.89
2019-01-28T07:27:42.202Z,85.38
2019-01-28T07:30:15.123Z,85.54
2019-01-28T07:32:44.144Z,85.55
2019-01-28T07:35:15.092Z,85.83
2019-01-28T07:37:44.439Z,85.43
2019-01-28T07:40:15.052Z,85.20
2019-01-28T07:42:44.377Z,84.47
2019-01-28T07:45:17.376Z,85.15
2019-01-28T07:47:46.382Z,84.85
2019-01-28T07:50:15.806Z,85.14
2019-01-28T07:52:45.281Z,84.75
2019-01-28T07:55:15.239Z,85.52
2019-01-28T07:57:44.250Z,85.08
2019-01-28T08:00:16.680Z,85.41
2019-01-28T08:02:46.076Z,84.92
2019-01-28T08:05:15.829Z,85.08
2019-01-28T08:07:45.175Z,83.94
2019-01-28T08:10:15.766Z,83.41
2019-01-28T08:12:44.882Z,84.49
2019-01-28T08:15:16.574Z,84.57
2019-01-28T08:17:45.797Z,84.28
2019-01-28T08:20:16.347Z,85.18
2019-01-28T08:22:45.490Z,84.74
2019-01-28T08:25:15.975Z,84.70
2019-01-28T08:27:45.642Z,84.68
2019-01-28T08:30:26.622Z,84.40
2019-01-28T08:32:55.912Z,84.58
2019-01-28T08:35:25.484Z,84.91
2019-01-28T08:37:55.136Z,84.09
2019-01-28T08:40:24.372Z,84.70
2019-01-28T08:42:53.652Z,84.05
2019-01-28T08:45:22.659Z,83.91
2019-01-28T08:47:51.660Z,84.00
2019-01-28T08:50:22.120Z,83.78
2019-01-28T08:52:51.545Z,84.32
2019-01-28T08:55:21.836Z,83.63
2019-01-28T08:57:51.422Z,84.16
2019-01-28T09:00:26.124Z,83.57
2019-01-28T09:02:55.154Z,83.73
2019-01-28T09:05:24.206Z,83.58
2019-01-28T09:07:53.487Z,83.35
2019-01-28T09:10:24.842Z,83.50
2019-01-28T09:12:54.172Z,83.45
2019-01-28T09:15:23.272Z,83.88
2019-01-28T09:17:52.478Z,83.79
2019-01-28T09:20:22.526Z,83.39
2019-01-28T09:22:51.635Z,82.86
2019-01-28T09:25:20.839Z,82.64
2019-01-28T09:27:50.184Z,82.80
2019-01-28T09:30:22.038Z,82.50
2019-01-28T09:32:51.127Z,81.49
2019-01-28T09:35:20.413Z,81.18
2019-01-28T09:37:49.485Z,80.24
2019-01-28T09:40:20.224Z,79.98
2019-01-28T09:42:50.560Z,80.21
2019-01-28T09:45:22.080Z,80.97
2019-01-28T09:47:51.104Z,81.50
2019-01-28T09:50:20.417Z,80.94
2019-01-28T09:52:49.841Z,80.13
2019-01-28T09:55:18.992Z,79.25
2019-01-28T09:57:48.138Z,78.89
2019-01-28T10:00:21.316Z,78.33
2019-01-28T10:02:50.356Z,78.03
2019-01-28T10:05:19.673Z,78.56
2019-01-28T10:07:48.710Z,78.90
2019-01-28T10:10:17.866Z,78.64
2019-01-28T10:12:46.888Z,78.84
2019-01-28T10:15:18.013Z,79.75
2019-01-28T10:17:47.094Z,79.73
2019-01-28T10:20:37.382Z,80.14
2019-01-28T10:23:06.468Z,78.93
2019-01-28T10:25:35.518Z,78.31
2019-01-28T10:28:04.666Z,73.73
2019-01-28T10:30:38.469Z,68.47
2019-01-28T10:33:08.436Z,62.86
2019-01-28T10:35:38.127Z,57.35
2019-01-28T10:38:07.633Z,59.25
2019-01-28T10:40:37.577Z,60.10
2019-01-28T10:43:08.166Z,63.52
2019-01-28T10:45:37.186Z,65.54
2019-01-28T10:48:07.364Z,69.09
2019-01-28T10:50:37.057Z,70.39
2019-01-28T10:53:07.204Z,71.62
2019-01-28T10:55:36.210Z,72.86
2019-01-28T10:58:05.790Z,74.38
2019-01-28T11:00:37.143Z,74.61
2019-01-28T11:03:07.912Z,73.40
2019-01-28T11:05:37.082Z,73.64
2019-01-28T11:08:06.704Z,69.39
2019-01-28T11:10:35.797Z,67.57
2019-01-28T11:13:05.359Z,67.98
2019-01-28T11:15:34.633Z,67.37
2019-01-28T11:18:05.327Z,68.46
2019-01-28T11:20:34.803Z,70.22
2019-01-28T11:23:04.350Z,70.17
2019-01-28T11:25:33.782Z,70.99
2019-01-28T11:28:02.959Z,72.80
2019-01-28T11:30:40.672Z,72.79
2019-01-28T11:33:10.470Z,72.79
2019-01-28T11:35:40.045Z,74.37
2019-01-28T11:38:09.348Z,76.78
2019-01-28T11:40:38.593Z,78.37
2019-01-28T11:43:07.795Z,79.81
2019-01-28T11:45:39.435Z,80.89
2019-01-28T11:48:09.057Z,83.09
2019-01-28T11:50:38.090Z,84.01
2019-01-28T11:53:07.130Z,83.71
2019-01-28T11:55:36.154Z,84.76
2019-01-28T11:58:05.440Z,84.27
2019-01-28T12:00:50.505Z,81.31
2019-01-28T12:03:19.540Z,77.33
2019-01-28T12:05:48.841Z,65.69
2019-01-28T12:08:17.896Z,59.66
2019-01-28T12:10:47.391Z,58.44
2019-01-28T12:13:16.810Z,58.06
2019-01-28T12:15:45.862Z,55.03
2019-01-28T12:18:15.636Z,55.26
2019-01-28T12:20:53.192Z,50.51
2019-01-28T12:23:15.848Z,55.76
2019-01-28T12:25:44.934Z,56.36
2019-01-28T12:28:13.995Z,60.04
2019-01-28T12:30:43.340Z,63.50
2019-01-28T12:33:12.765Z,65.68
2019-01-28T12:35:41.760Z,68.45
2019-01-28T12:38:10.826Z,69.24
2019-01-28T12:40:40.141Z,70.67
2019-01-28T12:43:09.174Z,73.63
2019-01-28T12:45:38.450Z,72.08
2019-01-28T12:48:07.794Z,70.57
2019-01-28T12:50:36.846Z,71.16
2019-01-28T12:53:06.143Z,71.22
2019-01-28T12:55:35.172Z,72.72
2019-01-28T12:58:04.803Z,73.03
2019-01-28T13:00:38.836Z,74.22
2019-01-28T13:03:08.138Z,73.96
2019-01-28T13:05:37.897Z,75.93
2019-01-28T13:08:06.949Z,74.74
2019-01-28T13:10:35.963Z,77.29
2019-01-28T13:13:05.426Z,77.04
2019-01-28T13:15:34.917Z,77.44
2019-01-28T13:18:04.547Z,76.72
2019-01-28T13:20:33.612Z,76.86
2019-01-28T13:23:02.712Z,76.87
2019-01-28T13:25:32.924Z,78.04
2019-01-28T13:28:02.007Z,77.03
2019-01-28T13:30:35.269Z,77.80
2019-01-28T13:33:05.624Z,78.32
2019-01-28T13:35:34.686Z,76.57
2019-01-28T13:38:04.056Z,77.18
2019-01-28T13:40:33.151Z,77.44
2019-01-28T13:43:02.542Z,77.52
2019-01-28T13:45:31.639Z,76.57
2019-01-28T13:48:00.957Z,77.52
2019-01-28T13:50:30.174Z,78.29
2019-01-28T13:52:59.855Z,78.14
2019-01-28T13:55:29.168Z,77.93
2019-01-28T13:57:58.238Z,79.36
2019-01-28T14:00:28.333Z,79.53
2019-01-28T14:02:58.085Z,78.50
2019-01-28T14:05:27.136Z,79.29
2019-01-28T14:07:56.849Z,79.26
2019-01-28T14:10:26.683Z,80.85
2019-01-28T14:12:56.053Z,79.43
2019-01-28T14:15:33.423Z,79.17
2019-01-28T14:18:02.480Z,77.81
2019-01-28T14:20:32.545Z,78.25
2019-01-28T14:23:01.629Z,78.38
2019-01-28T14:25:30.746Z,79.15
2019-01-28T14:28:00.072Z,80.16
2019-01-28T14:30:37.988Z,82.31
2019-01-28T14:33:07.702Z,82.11
2019-01-28T14:35:37.666Z,82.84
2019-01-28T14:38:08.103Z,81.85
2019-01-28T14:40:37.676Z,82.98
2019-01-28T14:43:06.902Z,84.84
2019-01-28T14:45:36.754Z,84.25
2019-01-28T14:48:07.096Z,84.85
2019-01-28T14:50:37.040Z,84.38
2019-01-28T14:53:07.154Z,82.97
2019-01-28T14:55:37.449Z,82.10
2019-01-28T14:58:08.535Z,82.95
2019-01-28T15:00:38.588Z,83.23
2019-01-28T15:03:07.974Z,81.40
2019-01-28T15:05:37.585Z,79.60
2019-01-28T15:08:06.985Z,77.36
2019-01-28T15:10:36.571Z,75.96
2019-01-28T15:13:06.178Z,75.92
2019-01-28T15:15:36.758Z,75.67
2019-01-28T15:18:07.646Z,74.96
2019-01-28T15:20:37.035Z,76.74
2019-01-28T15:23:07.358Z,75.68
2019-01-28T15:25:38.191Z,75.87
2019-01-28T15:28:07.748Z,75.38
2019-01-28T15:30:37.214Z,75.06
2019-01-28T15:33:06.460Z,76.71
2019-01-28T15:35:35.532Z,77.63
2019-01-28T15:38:04.952Z,77.99
2019-01-28T15:40:35.195Z,78.91
2019-01-28T15:43:04.235Z,76.83
2019-01-28T15:45:35.707Z,79.02
2019-01-28T15:48:05.394Z,79.37
2019-01-28T15:50:34.456Z,79.31
2019-01-28T15:53:04.039Z,79.64
2019-01-28T15:55:35.473Z,79.65
2019-01-28T15:58:04.814Z,80.88
2019-01-28T16:00:34.407Z,82.29
2019-01-28T16:03:04.544Z,81.21
2019-01-28T16:05:33.577Z,81.06
2019-01-28T16:08:02.653Z,81.07
2019-01-28T16:10:31.682Z,81.88
2019-01-28T16:13:00.706Z,80.60
2019-01-28T16:15:32.743Z,81.88
2019-01-28T16:18:02.117Z,81.87
2019-01-28T16:20:31.115Z,82.84
2019-01-28T16:23:00.538Z,81.68
2019-01-28T16:25:29.544Z,81.00
2019-01-28T16:27:58.613Z,80.75
2019-01-28T16:30:28.372Z,82.32
2019-01-28T16:32:57.579Z,82.86
2019-01-28T16:35:27.239Z,82.32
2019-01-28T16:37:56.412Z,82.76
2019-01-28T16:40:26.634Z,84.59
2019-01-28T16:42:56.062Z,84.51
2019-01-28T16:45:25.279Z,84.07
2019-01-28T16:47:54.555Z,85.10
2019-01-28T16:50:28.587Z,86.49
2019-01-28T16:52:58.107Z,86.89
2019-01-28T16:55:27.431Z,86.55
2019-01-28T16:57:57.249Z,87.15
2019-01-28T17:00:28.757Z,87.77
2019-01-28T17:02:57.763Z,87.42
2019-01-28T17:05:27.548Z,87.57
2019-01-28T17:07:57.245Z,87.36
2019-01-28T17:10:26.384Z,87.75
2019-01-28T17:12:55.409Z,87.61
2019-01-28T17:15:25.316Z,87.65
2019-01-28T17:17:54.390Z,88.00
2019-01-28T17:20:25.448Z,88.42
2019-01-28T17:22:54.672Z,89.80
2019-01-28T17:25:26.390Z,89.50
2019-01-28T17:27:56.130Z,88.62
2019-01-28T17:30:30.811Z,88.16
2019-01-28T17:33:00.248Z,88.63
2019-01-28T17:35:29.310Z,89.09
2019-01-28T17:37:58.405Z,89.02
2019-01-28T17:40:28.024Z,88.06
2019-01-28T17:42:57.465Z,88.51
2019-01-28T17:45:27.892Z,88.50
2019-01-28T17:47:57.128Z,88.42
2019-01-28T17:50:27.123Z,87.58
2019-01-28T17:52:56.241Z,87.35
2019-01-28T17:55:25.609Z,86.67
2019-01-28T17:57:55.244Z,86.50
2019-01-28T18:00:37.634Z,86.82
2019-01-28T18:03:07.048Z,86.24
2019-01-28T18:05:36.376Z,85.92
2019-01-28T18:08:06.639Z,86.31
2019-01-28T18:10:35.755Z,84.95
2019-01-28T18:13:05.945Z,86.00
2019-01-28T18:15:34.961Z,86.03
2019-01-28T18:18:03.994Z,86.24
2019-01-28T18:20:33.341Z,84.60
2019-01-28T18:23:02.896Z,84.47
2019-01-28T18:25:32.652Z,84.60
2019-01-28T18:28:02.102Z,85.00
2019-01-28T18:30:40.043Z,85.46
2019-01-28T18:33:09.801Z,85.13
2019-01-28T18:35:39.208Z,84.92
2019-01-28T18:38:08.959Z,85.63
2019-01-28T18:40:37.999Z,83.85
2019-01-28T18:43:07.416Z,84.02
2019-01-28T18:45:36.654Z,84.20
2019-01-28T18:48:07.403Z,84.00
2019-01-28T18:50:36.553Z,85.41
2019-01-28T18:53:06.155Z,84.03
2019-01-28T18:55:35.541Z,84.50
2019-01-28T18:58:04.961Z,82.46
2019-01-28T19:00:34.239Z,84.19
2019-01-28T19:03:03.946Z,83.74
2019-01-28T19:05:54.971Z,83.24
2019-01-28T19:08:46.771Z,82.98
2019-01-28T19:11:43.850Z,83.85
2019-01-28T19:14:28.005Z,82.27
2019-01-28T19:17:34.362Z,82.26
2019-01-28T19:20:30.168Z,83.86
2019-01-28T19:22:59.603Z,83.28
2019-01-28T19:25:28.660Z,82.85
2019-01-28T19:27:57.700Z,83.50
2019-01-28T19:30:26.708Z,82.93
2019-01-28T19:32:55.777Z,83.94
2019-01-28T19:35:24.822Z,84.14
2019-01-28T19:37:53.837Z,83.96
2019-01-28T19:40:22.870Z,83.75
2019-01-28T19:42:52.141Z,82.83
2019-01-28T19:45:21.597Z,84.29
2019-01-28T19:47:50.774Z,83.85
2019-01-28T19:50:24.401Z,82.50
2019-01-28T19:52:53.443Z,82.77
2019-01-28T19:55:22.681Z,81.51
2019-01-28T19:57:51.838Z,81.71
2019-01-28T20:00:23.419Z,81.72
2019-01-28T20:02:53.044Z,82.79
2019-01-28T20:05:22.085Z,82.06
2019-01-28T20:07:51.264Z,82.00
2019-01-28T20:10:20.659Z,81.37
2019-01-28T20:12:49.750Z,82.15
2019-01-28T20:15:19.928Z,82.40
2019-01-28T20:17:49.387Z,81.17
2019-01-28T20:20:18.896Z,81.98
2019-01-28T20:22:48.406Z,83.12
2019-01-28T20:25:18.147Z,82.71
2019-01-28T20:27:47.145Z,83.03
2019-01-28T20:30:24.529Z,84.08
2019-01-28T20:32:53.938Z,82.51
2019-01-28T20:35:23.249Z,82.02
2019-01-28T20:37:52.615Z,82.02
2019-01-28T20:40:21.777Z,82.30
2019-01-28T20:42:50.882Z,82.26
2019-01-28T20:45:21.559Z,82.21
2019-01-28T20:47:50.643Z,82.68
2019-01-28T20:50:21.806Z,82.17
2019-01-28T20:52:50.886Z,83.45
2019-01-28T20:55:19.975Z,81.32
2019-01-28T20:57:49.066Z,81.64
2019-01-28T21:00:20.243Z,82.15
2019-01-28T21:02:49.271Z,82.99
2019-01-28T21:05:18.984Z,82.30
2019-01-28T21:07:47.986Z,81.85
2019-01-28T21:10:18.507Z,81.88
2019-01-28T21:12:48.509Z,81.83
2019-01-28T21:15:17.648Z,82.08
2019-01-28T21:17:47.351Z,81.18
2019-01-28T21:20:17.626Z,80.67
2019-01-28T21:22:47.007Z,80.89
2019-01-28T21:25:18.599Z,81.39
2019-01-28T21:27:47.615Z,82.16
2019-01-28T21:30:19.854Z,81.99
2019-01-28T21:32:49.588Z,82.50
2019-01-28T21:35:20.951Z,81.35
2019-01-28T21:38:00.416Z,80.91
2019-01-28T21:40:26.403Z,81.43
2019-01-28T21:42:55.847Z,80.10
2019-01-28T21:45:24.924Z,80.05
2019-01-28T21:47:54.399Z,80.52
2019-01-28T21:50:24.961Z,80.27
2019-01-28T21:52:54.350Z,81.65
2019-01-28T21:55:23.410Z,81.32
2019-01-28T21:57:52.447Z,82.30
2019-01-28T22:00:21.973Z,82.52
2019-01-28T22:02:51.018Z,81.40
2019-01-28T22:05:20.163Z,82.70
2019-01-28T22:07:49.279Z,81.49
2019-01-28T22:10:18.311Z,82.20
2019-01-28T22:12:47.495Z,82.53
2019-01-28T22:15:17.190Z,81.11
2019-01-28T22:17:46.302Z,80.79
2019-01-28T22:20:15.711Z,80.22
2019-01-28T22:22:45.049Z,80.47
2019-01-28T22:25:15.003Z,80.65
2019-01-28T22:27:44.200Z,80.79
2019-01-28T22:30:16.193Z,80.06
2019-01-28T22:32:45.203Z,79.92
2019-01-28T22:35:14.369Z,79.77
2019-01-28T22:37:43.797Z,80.51
2019-01-28T22:40:13.666Z,79.78
2019-01-28T22:42:42.678Z,80.57
2019-01-28T22:45:14.377Z,80.94
2019-01-28T22:47:43.837Z,81.52
2019-01-28T22:50:15.145Z,80.92
2019-01-28T22:52:45.201Z,81.02
2019-01-28T22:55:16.101Z,80.58
2019-01-28T22:57:45.110Z,80.31
2019-01-28T23:00:39.561Z,81.02
2019-01-28T23:03:08.941Z,80.91
2019-01-28T23:05:38.359Z,80.79
2019-01-28T23:08:07.465Z,79.89
2019-01-28T23:10:36.695Z,80.79
2019-01-28T23:13:05.983Z,81.01
2019-01-28T23:15:35.017Z,80.75
2019-01-28T23:18:04.199Z,80.08
2019-01-28T23:20:33.238Z,80.26
2019-01-28T23:23:02.633Z,79.83
2019-01-28T23:25:31.704Z,79.63
2019-01-28T23:28:00.721Z,79.11
2019-01-28T23:30:29.728Z,78.96
2019-01-28T23:32:59.120Z,79.23
2019-01-28T23:35:28.269Z,79.77
2019-01-28T23:37:58.045Z,80.47
2019-01-28T23:40:27.129Z,80.33
2019-01-28T23:42:57.688Z,80.44
2019-01-28T23:45:26.708Z,80.72
2019-01-28T23:47:56.047Z,80.90
2019-01-28T23:50:25.104Z,80.78
2019-01-28T23:52:54.117Z,80.89
2019-01-28T23:55:23.145Z,80.46
2019-01-28T23:57:56.829Z,80.38
